sensor_id;sensor_type;location;lat;lon;timestamp;P1;durP1;ratioP1;P2;durP2;ratioP2
53263;SDS011;39153;52.680;6.172;2023-08-12T00:01:41;13.75;;;9.02;;
53263;SDS011;39153;52.680;6.172;2023-08-12T00:04:07;11.40;;;9.02;;
53263;SDS011;39153;52.680;6.172;2023-08-12T00:06:32;13.55;;;8.48;;
53263;SDS011;39153;52.680;6.172;2023-08-12T00:08:58;12.38;;;8.77;;
53263;SDS011;39153;52.680;6.172;2023-08-12T00:11:24;12.77;;;8.85;;
53263;SDS011;39153;52.680;6.172;2023-08-12T00:13:50;12.45;;;8.98;;
53263;SDS011;39153;52.680;6.172;2023-08-12T00:16:15;13.63;;;8.80;;
53263;SDS011;39153;52.680;6.172;2023-08-12T00:18:41;13.38;;;9.13;;
53263;SDS011;39153;52.680;6.172;2023-08-12T00:21:08;14.02;;;8.48;;
53263;SDS011;39153;52.680;6.172;2023-08-12T00:23:37;14.55;;;8.85;;
53263;SDS011;39153;52.680;6.172;2023-08-12T00:26:04;12.50;;;8.82;;
53263;SDS011;39153;52.680;6.172;2023-08-12T00:28:30;12.32;;;8.70;;
53263;SDS011;39153;52.680;6.172;2023-08-12T00:30:56;16.27;;;9.77;;
53263;SDS011;39153;52.680;6.172;2023-08-12T00:33:21;12.95;;;8.82;;
53263;SDS011;39153;52.680;6.172;2023-08-12T00:35:47;12.15;;;8.73;;
53263;SDS011;39153;52.680;6.172;2023-08-12T00:38:13;11.05;;;8.10;;
53263;SDS011;39153;52.680;6.172;2023-08-12T00:40:38;15.77;;;9.27;;
53263;SDS011;39153;52.680;6.172;2023-08-12T00:43:04;13.98;;;9.25;;
53263;SDS011;39153;52.680;6.172;2023-08-12T00:45:30;13.35;;;8.60;;
53263;SDS011;39153;52.680;6.172;2023-08-12T00:47:55;11.52;;;8.73;;
53263;SDS011;39153;52.680;6.172;2023-08-12T00:50:22;11.90;;;8.18;;
53263;SDS011;39153;52.680;6.172;2023-08-12T00:52:48;12.05;;;8.43;;
53263;SDS011;39153;52.680;6.172;2023-08-12T00:55:15;15.02;;;8.98;;
53263;SDS011;39153;52.680;6.172;2023-08-12T00:57:41;12.52;;;9.07;;
53263;SDS011;39153;52.680;6.172;2023-08-12T01:00:08;11.65;;;8.32;;
53263;SDS011;39153;52.680;6.172;2023-08-12T01:02:34;14.45;;;8.95;;
53263;SDS011;39153;52.680;6.172;2023-08-12T01:04:59;12.13;;;8.20;;
53263;SDS011;39153;52.680;6.172;2023-08-12T01:07:25;10.98;;;8.20;;
53263;SDS011;39153;52.680;6.172;2023-08-12T01:09:51;13.30;;;8.38;;
53263;SDS011;39153;52.680;6.172;2023-08-12T01:12:23;12.90;;;8.75;;
53263;SDS011;39153;52.680;6.172;2023-08-12T01:15:14;14.93;;;9.25;;
53263;SDS011;39153;52.680;6.172;2023-08-12T01:17:42;13.00;;;8.23;;
53263;SDS011;39153;52.680;6.172;2023-08-12T01:20:09;12.65;;;9.00;;
53263;SDS011;39153;52.680;6.172;2023-08-12T01:22:39;11.50;;;8.05;;
53263;SDS011;39153;52.680;6.172;2023-08-12T01:25:06;14.05;;;9.15;;
53263;SDS011;39153;52.680;6.172;2023-08-12T01:27:34;12.70;;;9.15;;
53263;SDS011;39153;52.680;6.172;2023-08-12T01:30:03;12.63;;;9.23;;
53263;SDS011;39153;52.680;6.172;2023-08-12T01:35:23;13.43;;;9.20;;
53263;SDS011;39153;52.680;6.172;2023-08-12T01:37:57;13.77;;;10.40;;
53263;SDS011;39153;52.680;6.172;2023-08-12T01:40:24;12.95;;;9.80;;
53263;SDS011;39153;52.680;6.172;2023-08-12T01:42:52;16.13;;;10.48;;
53263;SDS011;39153;52.680;6.172;2023-08-12T01:45:18;14.00;;;10.18;;
53263;SDS011;39153;52.680;6.172;2023-08-12T01:47:44;15.40;;;10.55;;
53263;SDS011;39153;52.680;6.172;2023-08-12T01:50:10;14.20;;;10.40;;
53263;SDS011;39153;52.680;6.172;2023-08-12T01:52:36;14.55;;;11.02;;
53263;SDS011;39153;52.680;6.172;2023-08-12T01:55:02;16.33;;;10.75;;
53263;SDS011;39153;52.680;6.172;2023-08-12T01:57:28;15.88;;;11.52;;
53263;SDS011;39153;52.680;6.172;2023-08-12T01:59:53;15.48;;;10.48;;
53263;SDS011;39153;52.680;6.172;2023-08-12T02:02:19;14.85;;;10.80;;
53263;SDS011;39153;52.680;6.172;2023-08-12T02:04:45;17.05;;;10.30;;
53263;SDS011;39153;52.680;6.172;2023-08-12T02:07:11;16.02;;;10.95;;
53263;SDS011;39153;52.680;6.172;2023-08-12T02:09:37;17.63;;;11.55;;
53263;SDS011;39153;52.680;6.172;2023-08-12T02:12:02;18.58;;;12.10;;
53263;SDS011;39153;52.680;6.172;2023-08-12T02:14:28;20.15;;;11.80;;
53263;SDS011;39153;52.680;6.172;2023-08-12T02:16:54;19.33;;;11.60;;
53263;SDS011;39153;52.680;6.172;2023-08-12T02:19:20;15.25;;;11.63;;
53263;SDS011;39153;52.680;6.172;2023-08-12T02:21:45;17.33;;;11.60;;
53263;SDS011;39153;52.680;6.172;2023-08-12T02:24:11;16.33;;;12.00;;
53263;SDS011;39153;52.680;6.172;2023-08-12T02:26:37;15.93;;;11.25;;
53263;SDS011;39153;52.680;6.172;2023-08-12T02:29:03;15.15;;;12.45;;
53263;SDS011;39153;52.680;6.172;2023-08-12T02:31:29;16.77;;;11.43;;
53263;SDS011;39153;52.680;6.172;2023-08-12T02:33:55;15.75;;;11.38;;
53263;SDS011;39153;52.680;6.172;2023-08-12T02:36:20;13.55;;;11.60;;
53263;SDS011;39153;52.680;6.172;2023-08-12T02:38:46;18.35;;;11.65;;
53263;SDS011;39153;52.680;6.172;2023-08-12T02:41:12;19.42;;;11.82;;
53263;SDS011;39153;52.680;6.172;2023-08-12T02:43:38;15.38;;;10.95;;
53263;SDS011;39153;52.680;6.172;2023-08-12T02:46:03;16.95;;;12.02;;
53263;SDS011;39153;52.680;6.172;2023-08-12T02:48:29;16.00;;;11.45;;
53263;SDS011;39153;52.680;6.172;2023-08-12T02:50:55;17.33;;;11.13;;
53263;SDS011;39153;52.680;6.172;2023-08-12T02:53:21;16.20;;;10.80;;
53263;SDS011;39153;52.680;6.172;2023-08-12T02:55:46;16.90;;;11.50;;
53263;SDS011;39153;52.680;6.172;2023-08-12T02:58:12;15.68;;;11.02;;
53263;SDS011;39153;52.680;6.172;2023-08-12T03:00:40;15.50;;;11.23;;
53263;SDS011;39153;52.680;6.172;2023-08-12T03:03:08;14.75;;;10.43;;
53263;SDS011;39153;52.680;6.172;2023-08-12T03:05:34;17.38;;;11.23;;
53263;SDS011;39153;52.680;6.172;2023-08-12T03:08:00;15.60;;;10.75;;
53263;SDS011;39153;52.680;6.172;2023-08-12T03:10:28;16.02;;;10.65;;
53263;SDS011;39153;52.680;6.172;2023-08-12T03:12:54;16.52;;;11.30;;
53263;SDS011;39153;52.680;6.172;2023-08-12T03:15:20;17.80;;;11.32;;
53263;SDS011;39153;52.680;6.172;2023-08-12T03:17:46;19.05;;;12.32;;
53263;SDS011;39153;52.680;6.172;2023-08-12T03:20:12;16.70;;;11.35;;
53263;SDS011;39153;52.680;6.172;2023-08-12T03:22:37;19.40;;;12.10;;
53263;SDS011;39153;52.680;6.172;2023-08-12T03:25:04;18.13;;;12.02;;
53263;SDS011;39153;52.680;6.172;2023-08-12T03:27:30;16.38;;;11.65;;
53263;SDS011;39153;52.680;6.172;2023-08-12T03:29:56;15.82;;;11.75;;
53263;SDS011;39153;52.680;6.172;2023-08-12T03:32:23;17.40;;;11.68;;
53263;SDS011;39153;52.680;6.172;2023-08-12T03:34:49;17.63;;;11.05;;
53263;SDS011;39153;52.680;6.172;2023-08-12T03:37:14;16.88;;;12.38;;
53263;SDS011;39153;52.680;6.172;2023-08-12T03:39:40;19.52;;;11.95;;
53263;SDS011;39153;52.680;6.172;2023-08-12T03:42:06;17.15;;;12.27;;
53263;SDS011;39153;52.680;6.172;2023-08-12T03:44:31;19.70;;;12.82;;
53263;SDS011;39153;52.680;6.172;2023-08-12T03:46:57;20.25;;;13.48;;
53263;SDS011;39153;52.680;6.172;2023-08-12T03:49:23;18.83;;;12.98;;
53263;SDS011;39153;52.680;6.172;2023-08-12T03:51:48;20.02;;;13.38;;
53263;SDS011;39153;52.680;6.172;2023-08-12T03:54:14;20.55;;;13.48;;
53263;SDS011;39153;52.680;6.172;2023-08-12T03:56:40;19.30;;;13.23;;
53263;SDS011;39153;52.680;6.172;2023-08-12T03:59:05;18.25;;;14.48;;
53263;SDS011;39153;52.680;6.172;2023-08-12T04:01:31;18.98;;;13.68;;
53263;SDS011;39153;52.680;6.172;2023-08-12T04:03:57;21.30;;;14.52;;
53263;SDS011;39153;52.680;6.172;2023-08-12T04:06:22;18.65;;;14.60;;
53263;SDS011;39153;52.680;6.172;2023-08-12T04:08:48;23.58;;;15.27;;
53263;SDS011;39153;52.680;6.172;2023-08-12T04:11:14;21.92;;;15.70;;
53263;SDS011;39153;52.680;6.172;2023-08-12T04:13:40;21.67;;;15.70;;
53263;SDS011;39153;52.680;6.172;2023-08-12T04:16:05;26.55;;;16.50;;
53263;SDS011;39153;52.680;6.172;2023-08-12T04:18:31;24.05;;;16.67;;
53263;SDS011;39153;52.680;6.172;2023-08-12T04:20:57;25.13;;;16.73;;
53263;SDS011;39153;52.680;6.172;2023-08-12T04:23:22;27.17;;;17.85;;
53263;SDS011;39153;52.680;6.172;2023-08-12T04:25:48;27.10;;;17.42;;
53263;SDS011;39153;52.680;6.172;2023-08-12T04:28:14;25.50;;;18.40;;
53263;SDS011;39153;52.680;6.172;2023-08-12T04:30:44;28.40;;;18.10;;
53263;SDS011;39153;52.680;6.172;2023-08-12T04:33:11;28.42;;;19.08;;
53263;SDS011;39153;52.680;6.172;2023-08-12T04:35:38;25.00;;;17.85;;
53263;SDS011;39153;52.680;6.172;2023-08-12T04:38:04;27.00;;;18.85;;
53263;SDS011;39153;52.680;6.172;2023-08-12T04:40:30;29.42;;;18.92;;
53263;SDS011;39153;52.680;6.172;2023-08-12T04:42:56;32.13;;;19.45;;
53263;SDS011;39153;52.680;6.172;2023-08-12T04:45:23;31.45;;;19.33;;
53263;SDS011;39153;52.680;6.172;2023-08-12T04:47:49;27.83;;;20.17;;
53263;SDS011;39153;52.680;6.172;2023-08-12T04:50:15;28.98;;;20.45;;
53263;SDS011;39153;52.680;6.172;2023-08-12T04:52:41;30.15;;;19.90;;
53263;SDS011;39153;52.680;6.172;2023-08-12T04:55:07;30.42;;;21.17;;
53263;SDS011;39153;52.680;6.172;2023-08-12T04:57:33;30.52;;;22.30;;
53263;SDS011;39153;52.680;6.172;2023-08-12T04:59:58;30.67;;;21.48;;
53263;SDS011;39153;52.680;6.172;2023-08-12T05:02:24;33.28;;;22.35;;
53263;SDS011;39153;52.680;6.172;2023-08-12T05:04:50;28.27;;;21.48;;
53263;SDS011;39153;52.680;6.172;2023-08-12T05:07:16;29.40;;;21.00;;
53263;SDS011;39153;52.680;6.172;2023-08-12T05:09:43;31.98;;;21.58;;
53263;SDS011;39153;52.680;6.172;2023-08-12T05:12:12;35.13;;;23.10;;
53263;SDS011;39153;52.680;6.172;2023-08-12T05:14:38;32.17;;;22.20;;
53263;SDS011;39153;52.680;6.172;2023-08-12T05:17:05;29.38;;;20.67;;
53263;SDS011;39153;52.680;6.172;2023-08-12T05:19:31;33.67;;;22.95;;
53263;SDS011;39153;52.680;6.172;2023-08-12T05:21:56;30.90;;;22.25;;
53263;SDS011;39153;52.680;6.172;2023-08-12T05:24:22;31.02;;;20.65;;
53263;SDS011;39153;52.680;6.172;2023-08-12T05:26:48;29.90;;;21.73;;
53263;SDS011;39153;52.680;6.172;2023-08-12T05:29:14;31.23;;;22.27;;
53263;SDS011;39153;52.680;6.172;2023-08-12T05:31:40;30.98;;;22.65;;
53263;SDS011;39153;52.680;6.172;2023-08-12T05:34:05;30.75;;;23.30;;
53263;SDS011;39153;52.680;6.172;2023-08-12T05:36:31;35.03;;;23.33;;
53263;SDS011;39153;52.680;6.172;2023-08-12T05:38:57;32.55;;;24.00;;
53263;SDS011;39153;52.680;6.172;2023-08-12T05:41:23;33.75;;;25.13;;
53263;SDS011;39153;52.680;6.172;2023-08-12T05:43:49;37.45;;;26.27;;
53263;SDS011;39153;52.680;6.172;2023-08-12T05:46:15;33.00;;;26.08;;
53263;SDS011;39153;52.680;6.172;2023-08-12T05:48:40;37.42;;;26.17;;
53263;SDS011;39153;52.680;6.172;2023-08-12T05:51:06;37.42;;;27.20;;
53263;SDS011;39153;52.680;6.172;2023-08-12T05:53:32;38.03;;;28.25;;
53263;SDS011;39153;52.680;6.172;2023-08-12T05:56:00;39.35;;;28.58;;
53263;SDS011;39153;52.680;6.172;2023-08-12T05:58:26;39.33;;;28.52;;
53263;SDS011;39153;52.680;6.172;2023-08-12T06:00:52;41.95;;;29.83;;
53263;SDS011;39153;52.680;6.172;2023-08-12T06:03:18;38.22;;;28.52;;
53263;SDS011;39153;52.680;6.172;2023-08-12T06:05:45;42.70;;;29.73;;
53263;SDS011;39153;52.680;6.172;2023-08-12T06:08:11;40.88;;;31.10;;
53263;SDS011;39153;52.680;6.172;2023-08-12T06:10:37;40.13;;;30.05;;
53263;SDS011;39153;52.680;6.172;2023-08-12T06:13:03;42.20;;;31.30;;
53263;SDS011;39153;52.680;6.172;2023-08-12T06:15:29;41.85;;;30.67;;
53263;SDS011;39153;52.680;6.172;2023-08-12T06:17:55;44.50;;;31.15;;
53263;SDS011;39153;52.680;6.172;2023-08-12T06:20:21;45.97;;;31.83;;
53263;SDS011;39153;52.680;6.172;2023-08-12T06:22:47;40.75;;;31.23;;
53263;SDS011;39153;52.680;6.172;2023-08-12T06:25:13;47.33;;;32.35;;
53263;SDS011;39153;52.680;6.172;2023-08-12T06:27:39;41.75;;;31.75;;
53263;SDS011;39153;52.680;6.172;2023-08-12T06:30:04;44.58;;;32.20;;
53263;SDS011;39153;52.680;6.172;2023-08-12T06:32:31;45.28;;;32.88;;
53263;SDS011;39153;52.680;6.172;2023-08-12T06:34:58;46.45;;;32.50;;
53263;SDS011;39153;52.680;6.172;2023-08-12T06:37:24;46.35;;;32.45;;
53263;SDS011;39153;52.680;6.172;2023-08-12T06:39:49;44.65;;;31.27;;
53263;SDS011;39153;52.680;6.172;2023-08-12T06:42:15;45.15;;;32.50;;
53263;SDS011;39153;52.680;6.172;2023-08-12T06:44:41;49.40;;;33.10;;
53263;SDS011;39153;52.680;6.172;2023-08-12T06:47:07;42.33;;;32.45;;
53263;SDS011;39153;52.680;6.172;2023-08-12T06:49:32;48.25;;;33.00;;
53263;SDS011;39153;52.680;6.172;2023-08-12T06:51:58;44.08;;;31.85;;
53263;SDS011;39153;52.680;6.172;2023-08-12T06:54:24;44.17;;;32.33;;
53263;SDS011;39153;52.680;6.172;2023-08-12T06:56:50;42.10;;;31.38;;
53263;SDS011;39153;52.680;6.172;2023-08-12T06:59:16;41.53;;;30.65;;
53263;SDS011;39153;52.680;6.172;2023-08-12T07:01:42;40.50;;;30.42;;
53263;SDS011;39153;52.680;6.172;2023-08-12T07:04:07;44.72;;;31.92;;
53263;SDS011;39153;52.680;6.172;2023-08-12T07:06:33;41.92;;;30.85;;
53263;SDS011;39153;52.680;6.172;2023-08-12T07:08:59;40.47;;;30.60;;
53263;SDS011;39153;52.680;6.172;2023-08-12T07:11:24;44.17;;;31.98;;
53263;SDS011;39153;52.680;6.172;2023-08-12T07:13:50;44.08;;;32.13;;
53263;SDS011;39153;52.680;6.172;2023-08-12T07:16:16;41.92;;;31.85;;
53263;SDS011;39153;52.680;6.172;2023-08-12T07:18:41;40.08;;;30.77;;
53263;SDS011;39153;52.680;6.172;2023-08-12T07:21:07;43.20;;;29.60;;
53263;SDS011;39153;52.680;6.172;2023-08-12T07:23:33;39.67;;;29.90;;
53263;SDS011;39153;52.680;6.172;2023-08-12T07:25:59;41.70;;;29.95;;
53263;SDS011;39153;52.680;6.172;2023-08-12T07:28:24;40.88;;;30.23;;
53263;SDS011;39153;52.680;6.172;2023-08-12T07:30:50;40.72;;;30.30;;
53263;SDS011;39153;52.680;6.172;2023-08-12T07:33:17;41.92;;;29.15;;
53263;SDS011;39153;52.680;6.172;2023-08-12T07:35:44;46.25;;;32.35;;
53263;SDS011;39153;52.680;6.172;2023-08-12T07:38:10;44.85;;;31.45;;
53263;SDS011;39153;52.680;6.172;2023-08-12T07:40:36;42.50;;;30.67;;
53263;SDS011;39153;52.680;6.172;2023-08-12T07:43:01;43.33;;;30.98;;
53263;SDS011;39153;52.680;6.172;2023-08-12T07:45:27;40.53;;;29.65;;
53263;SDS011;39153;52.680;6.172;2023-08-12T07:47:53;43.67;;;32.22;;
53263;SDS011;39153;52.680;6.172;2023-08-12T07:50:19;40.95;;;30.20;;
53263;SDS011;39153;52.680;6.172;2023-08-12T07:52:45;43.58;;;32.38;;
53263;SDS011;39153;52.680;6.172;2023-08-12T07:55:10;51.22;;;34.25;;
53263;SDS011;39153;52.680;6.172;2023-08-12T07:57:37;46.60;;;32.65;;
53263;SDS011;39153;52.680;6.172;2023-08-12T08:00:03;52.55;;;34.42;;
53263;SDS011;39153;52.680;6.172;2023-08-12T08:02:30;47.95;;;33.13;;
53263;SDS011;39153;52.680;6.172;2023-08-12T08:04:56;47.15;;;32.50;;
53263;SDS011;39153;52.680;6.172;2023-08-12T08:07:21;45.50;;;31.27;;
53263;SDS011;39153;52.680;6.172;2023-08-12T08:09:47;36.45;;;27.35;;
53263;SDS011;39153;52.680;6.172;2023-08-12T08:12:13;41.30;;;27.52;;
53263;SDS011;39153;52.680;6.172;2023-08-12T08:14:39;39.10;;;25.13;;
53263;SDS011;39153;52.680;6.172;2023-08-12T08:17:04;32.92;;;24.10;;
53263;SDS011;39153;52.680;6.172;2023-08-12T08:19:31;34.10;;;25.05;;
53263;SDS011;39153;52.680;6.172;2023-08-12T08:21:57;36.75;;;24.30;;
53263;SDS011;39153;52.680;6.172;2023-08-12T08:24:23;37.38;;;24.90;;
53263;SDS011;39153;52.680;6.172;2023-08-12T08:26:49;27.60;;;21.05;;
53263;SDS011;39153;52.680;6.172;2023-08-12T08:29:14;28.60;;;20.45;;
53263;SDS011;39153;52.680;6.172;2023-08-12T08:31:40;24.67;;;17.35;;
53263;SDS011;39153;52.680;6.172;2023-08-12T08:34:06;23.98;;;17.08;;
53263;SDS011;39153;52.680;6.172;2023-08-12T08:36:32;20.95;;;16.23;;
53263;SDS011;39153;52.680;6.172;2023-08-12T08:38:57;19.98;;;15.68;;
53263;SDS011;39153;52.680;6.172;2023-08-12T08:41:23;19.00;;;15.65;;
53263;SDS011;39153;52.680;6.172;2023-08-12T08:43:50;24.67;;;18.25;;
53263;SDS011;39153;52.680;6.172;2023-08-12T08:46:20;21.60;;;17.25;;
53263;SDS011;39153;52.680;6.172;2023-08-12T08:48:46;18.33;;;14.18;;
53263;SDS011;39153;52.680;6.172;2023-08-12T08:51:13;16.33;;;11.98;;
53263;SDS011;39153;52.680;6.172;2023-08-12T08:53:40;17.00;;;12.80;;
53263;SDS011;39153;52.680;6.172;2023-08-12T08:56:06;15.93;;;10.75;;
53263;SDS011;39153;52.680;6.172;2023-08-12T08:58:32;13.13;;;10.43;;
53263;SDS011;39153;52.680;6.172;2023-08-12T09:00:58;10.82;;;8.90;;
53263;SDS011;39153;52.680;6.172;2023-08-12T09:03:25;12.23;;;8.95;;
53263;SDS011;39153;52.680;6.172;2023-08-12T09:05:52;12.02;;;9.18;;
53263;SDS011;39153;52.680;6.172;2023-08-12T09:08:20;11.13;;;9.30;;
53263;SDS011;39153;52.680;6.172;2023-08-12T09:10:46;9.45;;;8.00;;
53263;SDS011;39153;52.680;6.172;2023-08-12T09:13:13;9.10;;;7.13;;
53263;SDS011;39153;52.680;6.172;2023-08-12T09:15:40;8.00;;;5.90;;
53263;SDS011;39153;52.680;6.172;2023-08-12T09:18:06;8.00;;;6.15;;
53263;SDS011;39153;52.680;6.172;2023-08-12T09:20:34;9.35;;;6.40;;
53263;SDS011;39153;52.680;6.172;2023-08-12T09:23:01;8.55;;;6.50;;
53263;SDS011;39153;52.680;6.172;2023-08-12T09:25:27;9.43;;;6.90;;
53263;SDS011;39153;52.680;6.172;2023-08-12T09:28:00;8.63;;;5.82;;
53263;SDS011;39153;52.680;6.172;2023-08-12T09:30:30;8.65;;;5.32;;
53263;SDS011;39153;52.680;6.172;2023-08-12T09:32:59;8.30;;;5.90;;
53263;SDS011;39153;52.680;6.172;2023-08-12T09:35:31;7.68;;;5.50;;
53263;SDS011;39153;52.680;6.172;2023-08-12T09:37:58;6.57;;;5.82;;
53263;SDS011;39153;52.680;6.172;2023-08-12T09:40:24;7.25;;;5.97;;
53263;SDS011;39153;52.680;6.172;2023-08-12T09:42:50;6.35;;;5.20;;
53263;SDS011;39153;52.680;6.172;2023-08-12T09:45:16;8.77;;;5.22;;
53263;SDS011;39153;52.680;6.172;2023-08-12T09:47:45;7.47;;;5.00;;
53263;SDS011;39153;52.680;6.172;2023-08-12T09:50:11;7.40;;;5.32;;
53263;SDS011;39153;52.680;6.172;2023-08-12T09:52:39;6.65;;;5.07;;
53263;SDS011;39153;52.680;6.172;2023-08-12T09:55:05;5.55;;;4.50;;
53263;SDS011;39153;52.680;6.172;2023-08-12T09:57:33;6.88;;;3.78;;
53263;SDS011;39153;52.680;6.172;2023-08-12T10:00:02;5.05;;;3.42;;
53263;SDS011;39153;52.680;6.172;2023-08-12T10:02:28;4.97;;;3.10;;
53263;SDS011;39153;52.680;6.172;2023-08-12T10:04:55;7.63;;;3.42;;
53263;SDS011;39153;52.680;6.172;2023-08-12T10:07:23;4.90;;;2.88;;
53263;SDS011;39153;52.680;6.172;2023-08-12T10:09:50;4.55;;;3.35;;
53263;SDS011;39153;52.680;6.172;2023-08-12T10:12:16;5.18;;;3.35;;
53263;SDS011;39153;52.680;6.172;2023-08-12T10:14:42;4.57;;;2.70;;
53263;SDS011;39153;52.680;6.172;2023-08-12T10:17:08;4.43;;;2.85;;
53263;SDS011;39153;52.680;6.172;2023-08-12T10:19:35;6.50;;;3.40;;
53263;SDS011;39153;52.680;6.172;2023-08-12T10:22:02;5.57;;;3.28;;
53263;SDS011;39153;52.680;6.172;2023-08-12T10:24:29;4.75;;;3.03;;
53263;SDS011;39153;52.680;6.172;2023-08-12T10:26:55;5.50;;;3.58;;
53263;SDS011;39153;52.680;6.172;2023-08-12T10:29:22;5.95;;;3.47;;
53263;SDS011;39153;52.680;6.172;2023-08-12T10:31:49;4.40;;;3.47;;
53263;SDS011;39153;52.680;6.172;2023-08-12T10:34:22;4.50;;;2.90;;
53263;SDS011;39153;52.680;6.172;2023-08-12T10:36:55;4.38;;;2.20;;
53263;SDS011;39153;52.680;6.172;2023-08-12T10:39:24;3.45;;;1.77;;
53263;SDS011;39153;52.680;6.172;2023-08-12T10:41:51;2.63;;;1.50;;
53263;SDS011;39153;52.680;6.172;2023-08-12T10:44:20;1.80;;;0.90;;
53263;SDS011;39153;52.680;6.172;2023-08-12T10:46:50;1.60;;;0.80;;
53263;SDS011;39153;52.680;6.172;2023-08-12T10:49:18;1.92;;;0.80;;
53263;SDS011;39153;52.680;6.172;2023-08-12T10:51:50;3.00;;;0.98;;
53263;SDS011;39153;52.680;6.172;2023-08-12T10:54:20;3.05;;;1.02;;
53263;SDS011;39153;52.680;6.172;2023-08-12T11:07:34;3.53;;;1.60;;
53263;SDS011;39153;52.680;6.172;2023-08-12T11:12:47;3.47;;;1.20;;
53263;SDS011;39153;52.680;6.172;2023-08-12T11:17:42;6.00;;;2.22;;
53263;SDS011;39153;52.680;6.172;2023-08-12T11:20:11;6.07;;;2.75;;
53263;SDS011;39153;52.680;6.172;2023-08-12T11:22:42;6.43;;;3.03;;
53263;SDS011;39153;52.680;6.172;2023-08-12T11:25:09;6.55;;;2.60;;
53263;SDS011;39153;52.680;6.172;2023-08-12T11:27:43;8.20;;;3.10;;
53263;SDS011;39153;52.680;6.172;2023-08-12T11:30:11;8.90;;;3.00;;
53263;SDS011;39153;52.680;6.172;2023-08-12T11:32:40;7.28;;;3.20;;
53263;SDS011;39153;52.680;6.172;2023-08-12T11:35:09;7.68;;;3.20;;
53263;SDS011;39153;52.680;6.172;2023-08-12T11:37:36;7.63;;;3.08;;
53263;SDS011;39153;52.680;6.172;2023-08-12T11:40:06;7.75;;;2.60;;
53263;SDS011;39153;52.680;6.172;2023-08-12T11:42:40;6.60;;;2.67;;
53263;SDS011;39153;52.680;6.172;2023-08-12T11:45:07;6.65;;;2.72;;
53263;SDS011;39153;52.680;6.172;2023-08-12T11:47:34;7.85;;;2.70;;
53263;SDS011;39153;52.680;6.172;2023-08-12T11:50:03;7.25;;;2.25;;
53263;SDS011;39153;52.680;6.172;2023-08-12T11:52:30;7.25;;;2.50;;
53263;SDS011;39153;52.680;6.172;2023-08-12T11:54:56;6.95;;;2.53;;
53263;SDS011;39153;52.680;6.172;2023-08-12T11:57:23;7.65;;;2.15;;
53263;SDS011;39153;52.680;6.172;2023-08-12T11:59:52;4.97;;;1.90;;
53263;SDS011;39153;52.680;6.172;2023-08-12T12:02:23;5.97;;;1.83;;
53263;SDS011;39153;52.680;6.172;2023-08-12T12:04:50;8.38;;;1.95;;
53263;SDS011;39153;52.680;6.172;2023-08-12T12:07:20;6.38;;;2.05;;
53263;SDS011;39153;52.680;6.172;2023-08-12T12:09:51;6.78;;;2.15;;
53263;SDS011;39153;52.680;6.172;2023-08-12T12:12:18;8.07;;;2.00;;
53263;SDS011;39153;52.680;6.172;2023-08-12T12:14:47;9.68;;;2.70;;
53263;SDS011;39153;52.680;6.172;2023-08-12T12:17:14;5.55;;;1.90;;
53263;SDS011;39153;52.680;6.172;2023-08-12T12:19:40;7.00;;;1.70;;
53263;SDS011;39153;52.680;6.172;2023-08-12T12:22:06;8.13;;;2.10;;
53263;SDS011;39153;52.680;6.172;2023-08-12T12:24:38;5.95;;;1.90;;
53263;SDS011;39153;52.680;6.172;2023-08-12T12:27:10;6.65;;;1.70;;
53263;SDS011;39153;52.680;6.172;2023-08-12T12:29:36;7.63;;;2.03;;
53263;SDS011;39153;52.680;6.172;2023-08-12T12:32:02;7.13;;;2.17;;
53263;SDS011;39153;52.680;6.172;2023-08-12T12:34:27;7.05;;;2.50;;
53263;SDS011;39153;52.680;6.172;2023-08-12T12:36:53;6.18;;;1.77;;
53263;SDS011;39153;52.680;6.172;2023-08-12T12:39:19;9.90;;;2.28;;
53263;SDS011;39153;52.680;6.172;2023-08-12T12:41:44;7.95;;;2.17;;
53263;SDS011;39153;52.680;6.172;2023-08-12T12:44:10;7.05;;;1.70;;
53263;SDS011;39153;52.680;6.172;2023-08-12T12:46:36;7.88;;;2.28;;
53263;SDS011;39153;52.680;6.172;2023-08-12T12:49:02;9.95;;;1.83;;
53263;SDS011;39153;52.680;6.172;2023-08-12T12:51:28;7.50;;;1.80;;
53263;SDS011;39153;52.680;6.172;2023-08-12T12:53:53;7.47;;;1.90;;
53263;SDS011;39153;52.680;6.172;2023-08-12T12:56:19;7.57;;;2.03;;
53263;SDS011;39153;52.680;6.172;2023-08-12T12:58:45;9.15;;;2.13;;
53263;SDS011;39153;52.680;6.172;2023-08-12T13:01:10;6.53;;;1.88;;
53263;SDS011;39153;52.680;6.172;2023-08-12T13:03:36;9.57;;;2.35;;
53263;SDS011;39153;52.680;6.172;2023-08-12T13:06:02;8.20;;;2.03;;
53263;SDS011;39153;52.680;6.172;2023-08-12T13:08:28;8.68;;;2.05;;
53263;SDS011;39153;52.680;6.172;2023-08-12T13:10:56;8.75;;;2.15;;
53263;SDS011;39153;52.680;6.172;2023-08-12T13:13:21;7.65;;;1.95;;
53263;SDS011;39153;52.680;6.172;2023-08-12T13:15:47;7.60;;;1.90;;
53263;SDS011;39153;52.680;6.172;2023-08-12T13:18:13;8.98;;;2.22;;
53263;SDS011;39153;52.680;6.172;2023-08-12T13:20:38;7.38;;;1.60;;
53263;SDS011;39153;52.680;6.172;2023-08-12T13:23:05;8.35;;;1.80;;
53263;SDS011;39153;52.680;6.172;2023-08-12T13:25:32;6.80;;;1.75;;
53263;SDS011;39153;52.680;6.172;2023-08-12T13:27:59;11.32;;;2.00;;
53263;SDS011;39153;52.680;6.172;2023-08-12T13:30:25;10.57;;;1.95;;
53263;SDS011;39153;52.680;6.172;2023-08-12T13:32:51;8.85;;;1.98;;
53263;SDS011;39153;52.680;6.172;2023-08-12T13:35:17;8.32;;;2.08;;
53263;SDS011;39153;52.680;6.172;2023-08-12T13:37:43;11.18;;;2.15;;
53263;SDS011;39153;52.680;6.172;2023-08-12T13:40:09;10.50;;;1.92;;
53263;SDS011;39153;52.680;6.172;2023-08-12T13:42:37;7.70;;;2.05;;
53263;SDS011;39153;52.680;6.172;2023-08-12T13:45:03;6.88;;;1.80;;
53263;SDS011;39153;52.680;6.172;2023-08-12T13:47:30;6.10;;;1.83;;
53263;SDS011;39153;52.680;6.172;2023-08-12T13:49:55;7.35;;;1.50;;
53263;SDS011;39153;52.680;6.172;2023-08-12T13:52:21;7.15;;;1.73;;
53263;SDS011;39153;52.680;6.172;2023-08-12T13:54:47;9.10;;;1.92;;
53263;SDS011;39153;52.680;6.172;2023-08-12T13:57:13;8.05;;;1.85;;
53263;SDS011;39153;52.680;6.172;2023-08-12T13:59:38;10.82;;;2.30;;
53263;SDS011;39153;52.680;6.172;2023-08-12T14:02:08;9.02;;;2.20;;
53263;SDS011;39153;52.680;6.172;2023-08-12T14:04:37;9.25;;;2.03;;
53263;SDS011;39153;52.680;6.172;2023-08-12T14:07:06;7.72;;;1.75;;
53263;SDS011;39153;52.680;6.172;2023-08-12T14:09:32;8.30;;;1.95;;
53263;SDS011;39153;52.680;6.172;2023-08-12T14:11:59;8.27;;;2.10;;
53263;SDS011;39153;52.680;6.172;2023-08-12T14:14:25;8.07;;;1.60;;
53263;SDS011;39153;52.680;6.172;2023-08-12T14:16:54;9.52;;;2.13;;
53263;SDS011;39153;52.680;6.172;2023-08-12T14:19:20;9.00;;;1.90;;
53263;SDS011;39153;52.680;6.172;2023-08-12T14:21:46;7.55;;;2.03;;
53263;SDS011;39153;52.680;6.172;2023-08-12T14:24:11;8.50;;;2.00;;
53263;SDS011;39153;52.680;6.172;2023-08-12T14:26:38;7.55;;;1.90;;
53263;SDS011;39153;52.680;6.172;2023-08-12T14:29:05;6.68;;;1.67;;
53263;SDS011;39153;52.680;6.172;2023-08-12T14:31:31;6.95;;;1.85;;
53263;SDS011;39153;52.680;6.172;2023-08-12T14:33:56;8.10;;;2.00;;
53263;SDS011;39153;52.680;6.172;2023-08-12T14:36:23;7.45;;;1.75;;
53263;SDS011;39153;52.680;6.172;2023-08-12T14:38:49;7.80;;;2.15;;
53263;SDS011;39153;52.680;6.172;2023-08-12T14:41:15;6.47;;;1.75;;
53263;SDS011;39153;52.680;6.172;2023-08-12T14:43:41;6.93;;;1.85;;
53263;SDS011;39153;52.680;6.172;2023-08-12T14:46:07;8.32;;;2.00;;
53263;SDS011;39153;52.680;6.172;2023-08-12T14:48:33;11.75;;;2.05;;